Flight Track Log - Related Links

Times and Time Zones

All times are in EDT time to prevent confusion due to time zone crossing. See the N4553B flight status page for this flight to view local times or setup timezone preferences in your user account.

Time Position Orientation Groundspeed Altitude Reporting Facility
EDT Latitude Longitude Course Direction KTS MPH feet Rate Location/Type
Sat 04:18:08 PM 41.3731 -79.9375 278° West 113 130 3,700  Level Cleveland Center
Sat 04:19:10 PM 41.3817 -79.9817 285° West 120 138 3,900 97 Climbing Cleveland Center
Sat 04:20:12 PM 41.3881 -80.0325 280° West 137 158 3,900  Level Cleveland Center
Sat 04:21:14 PM 41.3847 -80.0831 265° West 139 160 3,900  Level Cleveland Center
Sat 04:22:00 PM 41.4070 -80.1371 278° West  Level FlightAware Approximate
Sat 04:22:16 PM 41.3914 -80.1439 278° West 140 161 3,900  Level Cleveland Center
Sat 04:23:00 PM 41.4119 -80.1832 278° West  Level FlightAware Approximate
Sat 04:23:18 PM 41.4044 -80.1936 289° West 142 163 3,900  Level Cleveland Center
Sat 04:24:20 PM 41.4075 -80.2442 275° West 140 161 3,900  Level Cleveland Center
Sat 04:25:22 PM 41.4125 -80.2917 278° West 136 157 3,900  Level Cleveland Center
Sat 04:26:23 PM 41.4242 -80.3397 288° West 137 158 3,900 49 Level Cleveland Center
Sat 04:27:25 PM 41.4281 -80.3969 275° West 135 155 4,000 48 Climbing Cleveland Center
Sat 04:28:27 PM 41.4314 -80.4467 275° West 133 153 4,000  Level Cleveland Center
Sat 04:29:29 PM 41.4406 -80.4961 284° West 136 157 4,000 -48 Level Cleveland Center
Sat 04:30:31 PM 41.4456 -80.5472 277° West 137 158 3,900 -48 Descending Cleveland Center
Sat 04:31:33 PM 41.4517 -80.5964 279° West 134 154 3,900 48 Level Cleveland Center
Sat 04:32:35 PM 41.4558 -80.6453 277° West 132 152 4,000 49 Climbing Cleveland Center
Sat 04:33:36 PM 41.4644 -80.6936 283° West 136 157 4,000  Level Cleveland Center
Sat 04:34:38 PM 41.4681 -80.7450 275° West 135 155 4,000  Level Cleveland Center
Sat 04:35:24 PM 41.4739 -80.7867 281° West 136 157 4,000  Level Cleveland Center
Sat 04:35:40 PM 41.4758 -80.7958 286° West 137 158 4,000 -333 Level Cleveland Center
Sat 04:35:42 PM 41.4767 -80.8039 278° West 137 158 3,900  Descending Cleveland Center
Sat 04:36:42 PM 41.4831 -80.8547 280° West 137 158 4,000 98 Climbing Cleveland Center
Sat 04:36:43 PM 41.4831 -80.8550 270° West 136 157 4,000  Level Cleveland Center
Sat 04:37:43 PM 41.4875 -80.9042 277° West 134 154 4,000  Level Cleveland Center
Sat 04:38:45 PM 41.4917 -80.9528 277° West 133 153 4,000  Level Cleveland Center
Sat 04:39:46 PM 41.4975 -81.0050 278° West 138 159 4,000  Level Cleveland Center
Sat 04:39:47 PM 41.4972 -81.0047 143° Southeast 135 155 4,000  Level Cleveland Center
Sat 04:40:47 PM 41.5039 -81.0561 280° West 138 159 4,000  Level Cleveland Center
Sat 04:40:48 PM 41.5033 -81.0547 118° Southeast 137 158 4,000  Level Cleveland Center
Sat 04:41:47 PM 41.5100 -81.1044 280° West 136 157 4,000  Level Cleveland Center
Sat 04:41:50 PM 41.5092 -81.1053 217° Southwest 137 158 4,000 -492 Level Cleveland Center
Sat 04:42:48 PM 41.5164 -81.1528 281° West 135 155 3,500 -484 Descending Cleveland Center
Sat 04:42:52 PM 41.5150 -81.1547 226° Southwest 135 155 3,500 -455 Level Cleveland Center
Sat 04:43:54 PM 41.5294 -81.1992 293° West 139 160 3,000 -203 Descending Cleveland Center
Sat 04:44:50 PM 41.5439 -81.2464 292° West 125 144 3,100  Climbing Cleveland Center
Sat 04:44:55 PM 41.5433 -81.2500 258° West 131 151 3,000  Descending Cleveland Center
Sat 04:45:51 PM 41.5592 -81.2881 299° West 130 150 3,100  Climbing Cleveland Center
Sat 04:45:57 PM 41.5592 -81.2919 270° West 127 146 3,000 -98 Descending Cleveland Center
Sat 04:46:52 PM 41.5742 -81.3322 296° West 130 150 3,000  Level Cleveland Center
Sat 04:46:59 PM 41.5747 -81.3353 284° West 127 146 3,000  Level Cleveland Center
Sat 04:47:52 PM 41.5831 -81.3756 285° West 122 140 3,000  Level Cleveland Center
Sat 04:48:00 PM 41.5844 -81.3794 296° West 126 145 3,000 -393 Level Cleveland Center
Sat 04:48:53 PM 41.6150 -81.3719 10° North 131 151 2,600 -387 Descending Cleveland Center
Sat 04:49:02 PM 41.6142 -81.3681 106° East 128 147 2,600 -98 Level Cleveland Center
Sat 04:49:54 PM 41.6372 -81.3561 21° North 110 127 2,500 -97 Descending Cleveland Center
Sat 04:50:04 PM 41.6372 -81.3586 270° West 131 151 2,500 -197 Level Cleveland Center
Sat 04:50:55 PM 41.6300 -81.3911 253° West 102 117 2,300 -295 Descending Cleveland Center
Sat 04:51:05 PM 41.6264 -81.3914 183° South 109 125 2,200 -197 Descending Cleveland Center
Sat 04:51:56 PM 41.6108 -81.4189 233° Southwest 101 116 2,100 -97 Descending Cleveland Center
Sat 04:52:07 PM 41.6069 -81.4194 186° South 105 121 2,100 -500 Level Cleveland Center
Sat 04:52:56 PM 41.5942 -81.4414 232° Southwest 85 98 1,600 -484 Descending Cleveland Center
Sat 04:53:09 PM 41.5922 -81.4433 217° Southwest 92 106 1,600 -492 Level Cleveland Center
Sat 04:53:57 PM 41.5772 -81.4667 229° Southwest 89 102 1,100 -492 Descending Cleveland Center
Sat 04:54:10 PM 41.5756 -81.4678 207° Southwest 89 102 1,100  Level Cleveland Center
Sat 04:56:00 PM 41.5651 -81.4864 225° Southwest  Level Estimated

Login

Don't have an account? Register now (free) for customized features, flight alerts, and more!